Time;durP1;ratioP1;P1;durP2;ratioP2;P2;SDS_P1;SDS_P2;PMS_P1;PMS_P2;Temp;Humidity;BMP_temperature;BMP_pressure;BME280_temperature;BME280_humidity;BME280_pressure;Samples;Min_cycle;Max_cycle;Signal;HPM_P1;HPM_P2
2021/06/05 00:01:56;;;;;;;18.75;10.55;;;;;;;13.05;64.77;97729.02;1844413;77;25693;-80
2021/06/05 00:04:25;;;;;;;22.13;13.00;;;;;;;12.95;65.05;97725.97;1844190;77;27204;-82
2021/06/05 00:06:52;;;;;;;22.37;13.28;;;;;;;12.82;65.16;97723.34;1844323;77;26043;-82
2021/06/05 00:09:21;;;;;;;24.90;13.48;;;;;;;12.73;65.47;97721.42;1844378;77;25731;-81
2021/06/05 00:11:47;;;;;;;22.32;12.82;;;;;;;12.63;65.71;97715.13;1813004;77;26700;-81
2021/06/05 00:14:14;;;;;;;21.95;12.80;;;;;;;12.59;65.80;97717.12;1844661;77;25249;-83
2021/06/05 00:16:46;;;;;;;19.48;11.80;;;;;;;12.59;65.78;97715.77;1844404;77;27414;-83
2021/06/05 00:19:16;;;;;;;18.37;11.22;;;;;;;12.62;65.97;97708.56;1831251;77;25799;-81
2021/06/05 00:21:44;;;;;;;16.48;10.70;;;;;;;12.62;66.03;97718.88;1827055;77;26587;-81
2021/06/05 00:24:12;;;;;;;17.05;9.65;;;;;;;12.62;66.23;97713.98;1844222;77;25898;-82
2021/06/05 00:26:40;;;;;;;13.30;9.10;;;;;;;12.58;66.11;97712.22;1825605;77;25710;-81
2021/06/05 00:29:06;;;;;;;15.53;8.33;;;;;;;12.62;66.21;97709.40;1839664;77;27580;-83
2021/06/05 00:31:33;;;;;;;16.73;8.48;;;;;;;12.73;66.36;97711.11;1842362;77;25659;-82
2021/06/05 00:34:00;;;;;;;13.08;8.75;;;;;;;12.81;66.24;97714.37;1841236;77;25825;-82
2021/06/05 00:36:28;;;;;;;14.38;8.40;;;;;;;12.87;66.29;97709.46;1844444;77;25842;-81
2021/06/05 00:38:54;;;;;;;11.05;8.13;;;;;;;12.91;66.25;97710.69;1844496;77;26430;-82
2021/06/05 00:41:24;;;;;;;15.28;8.73;;;;;;;12.96;66.22;97714.91;1844405;77;28368;-84
2021/06/05 00:43:55;;;;;;;15.25;8.95;;;;;;;12.99;66.17;97712.30;1844425;77;25635;-82
2021/06/05 00:46:24;;;;;;;12.82;8.45;;;;;;;13.03;66.29;97712.70;1841630;77;25690;-82
2021/06/05 00:48:50;;;;;;;14.87;9.10;;;;;;;13.01;66.17;97712.91;1799623;77;25763;-84
2021/06/05 00:51:20;;;;;;;20.88;10.32;;;;;;;13.03;66.25;97712.70;1830680;77;25757;-84
2021/06/05 00:53:47;;;;;;;20.57;10.38;;;;;;;13.06;66.25;97710.36;1813462;77;27525;-83
2021/06/05 00:56:14;;;;;;;20.15;10.85;;;;;;;13.09;66.22;97715.34;1844219;77;25708;-83
2021/06/05 00:58:41;;;;;;;15.10;9.88;;;;;;;13.10;66.22;97714.30;1817609;77;25751;-82
2021/06/05 01:01:19;;;;;;;14.10;9.43;;;;;;;13.11;66.29;97710.54;1772246;77;26353;-82
2021/06/05 01:03:45;;;;;;;15.08;9.78;;;;;;;13.10;66.31;97704.81;1824843;77;25790;-83
2021/06/05 01:06:32;;;;;;;15.95;9.23;;;;;;;13.13;66.27;97702.20;1796685;77;27586;-81
2021/06/05 01:09:18;;;;;;;17.80;9.68;;;;;;;13.13;66.33;97698.96;1744278;79;25844;-81
2021/06/05 01:12:06;;;;;;;16.45;9.70;;;;;;;13.12;66.35;97700.00;1739395;80;25761;-82
2021/06/05 01:14:41;;;;;;;14.30;9.50;;;;;;;13.10;66.45;97687.72;1708064;82;26387;-84
2021/06/05 01:17:31;;;;;;;17.25;9.10;;;;;;;13.07;66.50;97686.80;1743811;79;25851;-81
2021/06/05 01:20:15;;;;;;;16.90;9.33;;;;;;;13.07;66.55;97683.56;1743106;80;28121;-83
2021/06/05 01:23:19;;;;;;;14.93;9.35;;;;;;;13.08;66.57;97686.58;1707637;82;25332;-82
2021/06/05 01:26:09;;;;;;;14.35;8.75;;;;;;;13.08;66.72;97675.73;1744804;79;25306;-82
2021/06/05 01:29:04;;;;;;;15.28;9.40;;;;;;;13.03;66.83;97674.23;1707900;82;26558;-84
2021/06/05 01:31:45;;;;;;;16.20;8.68;;;;;;;13.04;66.92;97678.58;1736625;79;25786;-83
2021/06/05 01:34:14;;;;;;;14.63;9.50;;;;;;;13.03;67.04;97672.05;1732316;82;27627;-82
2021/06/05 01:36:45;;;;;;;19.12;8.95;;;;;;;13.04;67.08;97670.45;1743920;79;25942;-84
2021/06/05 01:39:16;;;;;;;16.05;9.45;;;;;;;13.06;67.14;97667.00;1707948;82;25897;-84
2021/06/05 01:41:45;;;;;;;14.58;8.93;;;;;;;13.07;67.07;97665.12;1749931;80;26523;-80
2021/06/05 01:44:13;;;;;;;13.10;7.83;;;;;;;13.09;67.05;97671.16;1711679;81;25727;-84
2021/06/05 01:46:44;;;;;;;16.70;9.03;;;;;;;13.11;67.15;97675.31;1714665;81;27438;-84
2021/06/05 01:49:12;;;;;;;10.82;7.92;;;;;;;13.09;67.17;97671.98;1787678;78;26261;-86
2021/06/05 01:51:44;;;;;;;13.43;8.95;;;;;;;13.10;67.19;97668.75;1797043;77;25928;-82
2021/06/05 01:54:16;;;;;;;11.70;8.87;;;;;;;13.10;67.27;97668.22;1797306;79;25752;-82
2021/06/05 01:56:56;;;;;;;14.05;9.15;;;;;;;13.11;67.30;97669.05;1797238;79;25698;-84
2021/06/05 01:59:24;;;;;;;14.18;9.10;;;;;;;13.11;67.25;97666.34;1797224;77;27428;-82
2021/06/05 02:01:50;;;;;;;14.68;8.05;;;;;;;13.10;67.41;97669.58;1797064;79;25707;-86
2021/06/05 02:04:17;;;;;;;14.85;8.45;;;;;;;13.10;67.44;97662.80;1806935;78;25638;-83
2021/06/05 02:06:47;;;;;;;12.47;8.15;;;;;;;13.11;67.44;97662.28;1805824;79;26247;-83
2021/06/05 02:09:18;;;;;;;13.00;8.33;;;;;;;13.10;67.56;97662.80;1808858;77;25712;-84
2021/06/05 02:11:49;;;;;;;14.23;9.15;;;;;;;13.12;67.84;97653.10;1820693;78;27419;-85
2021/06/05 02:14:24;;;;;;;15.60;9.35;;;;;;;13.04;67.92;97648.77;1806595;77;26364;-84
2021/06/05 02:16:53;;;;;;;13.62;8.25;;;;;;;13.02;68.11;97649.54;1806068;78;25728;-87
2021/06/05 02:19:30;;;;;;;20.35;8.95;;;;;;;13.01;68.24;97637.04;1805707;78;25789;-86
2021/06/05 02:22:02;;;;;;;13.68;8.65;;;;;;;13.01;68.25;97641.62;1817880;77;25742;-85
2021/06/05 02:24:33;;;;;;;12.90;9.03;;;;;;;13.02;68.34;97646.83;1812400;78;28424;-85
2021/06/05 02:27:01;;;;;;;15.45;9.15;;;;;;;13.04;68.27;97643.34;1799969;78;25750;-85
2021/06/05 02:29:32;;;;;;;16.32;9.60;;;;;;;13.10;68.17;97643.83;1825382;77;26345;-85
2021/06/05 02:32:00;;;;;;;15.30;9.20;;;;;;;13.12;68.27;97639.03;1798740;79;26518;-85
2021/06/05 02:34:30;;;;;;;13.10;8.75;;;;;;;13.07;68.35;97645.63;1822956;77;25646;-85
2021/06/05 02:37:01;;;;;;;14.28;8.83;;;;;;;13.08;68.50;97651.34;1805733;78;28159;-85
2021/06/05 02:39:29;;;;;;;12.65;9.90;;;;;;;13.05;68.54;97646.89;1807091;79;26277;-84
2021/06/05 02:41:57;;;;;;;14.95;10.55;;;;;;;13.03;68.70;97649.84;1813086;77;25640;-85
2021/06/05 02:44:28;;;;;;;13.60;10.08;;;;;;;12.99;68.60;97631.00;1817214;77;25745;-85
2021/06/05 02:46:57;;;;;;;15.08;9.08;;;;;;;12.95;68.71;97621.65;1811112;77;25712;-83
2021/06/05 02:49:31;;;;;;;15.78;9.30;;;;;;;12.94;68.70;97609.15;1816227;78;27622;-84
2021/06/05 02:52:08;;;;;;;16.75;10.23;;;;;;;12.99;68.89;97621.00;1807130;77;25936;-85
2021/06/05 02:54:36;;;;;;;15.98;9.60;;;;;;;13.01;68.74;97627.55;1819685;77;26287;-83
2021/06/05 02:57:06;;;;;;;16.57;10.55;;;;;;;13.01;68.87;97612.65;1810866;78;25827;-83
2021/06/05 02:59:34;;;;;;;17.17;10.88;;;;;;;13.04;68.93;97609.47;1785123;79;25644;-84
2021/06/05 03:02:01;;;;;;;15.32;9.78;;;;;;;13.07;69.05;97603.62;1792030;78;27383;-84
2021/06/05 03:04:27;;;;;;;12.75;9.95;;;;;;;13.12;68.93;97605.15;1815736;77;25728;-84
2021/06/05 03:06:54;;;;;;;13.05;10.08;;;;;;;13.18;68.91;97612.93;1833573;77;25827;-84
2021/06/05 03:09:21;;;;;;;16.00;10.32;;;;;;;13.21;69.07;97613.32;1833553;77;26621;-84
2021/06/05 03:11:50;;;;;;;15.43;10.32;;;;;;;13.18;69.09;97619.18;1833751;77;25783;-84
2021/06/05 03:14:16;;;;;;;15.28;9.48;;;;;;;13.20;69.09;97621.15;1833723;77;27346;-84
2021/06/05 03:16:43;;;;;;;17.35;10.38;;;;;;;13.25;69.18;97621.84;1833344;77;25806;-84
2021/06/05 03:19:10;;;;;;;12.68;9.93;;;;;;;13.21;69.34;97628.23;1833495;77;25737;-84
2021/06/05 03:21:36;;;;;;;14.33;9.15;;;;;;;13.14;69.49;97612.56;1823835;77;25749;-84
2021/06/05 03:24:04;;;;;;;14.05;10.65;;;;;;;13.10;69.60;97599.11;1833630;77;25664;-84
2021/06/05 03:26:31;;;;;;;17.32;9.48;;;;;;;13.12;69.68;97601.08;1833444;77;27406;-85
2021/06/05 03:28:57;;;;;;;17.82;10.60;;;;;;;13.16;69.69;97615.06;1833191;77;25771;-85
2021/06/05 03:31:24;;;;;;;14.58;9.70;;;;;;;13.17;69.61;97605.33;1805790;77;25666;-85
2021/06/05 03:33:51;;;;;;;15.45;9.50;;;;;;;13.18;69.65;97610.22;1823448;77;25844;-81
2021/06/05 03:36:21;;;;;;;15.28;9.43;;;;;;;13.23;69.56;97619.36;1827350;77;25878;-86
2021/06/05 03:38:48;;;;;;;13.78;9.58;;;;;;;13.27;69.72;97615.16;1833503;77;27209;-85
2021/06/05 03:41:15;;;;;;;14.15;9.08;;;;;;;13.25;69.81;97622.68;1833523;77;25732;-85
2021/06/05 03:43:42;;;;;;;12.13;8.83;;;;;;;13.24;69.87;97630.50;1833473;77;26278;-85
2021/06/05 03:46:10;;;;;;;13.80;9.43;;;;;;;13.27;70.03;97634.13;1833715;77;26559;-85
2021/06/05 03:48:38;;;;;;;15.83;9.95;;;;;;;13.28;70.03;97645.25;1833759;77;25700;-85
2021/06/05 03:51:07;;;;;;;14.63;10.13;;;;;;;13.32;69.98;97649.19;1833566;77;27525;-85
2021/06/05 03:53:34;;;;;;;13.60;11.03;;;;;;;13.31;69.87;97656.19;1833301;77;25767;-84
2021/06/05 03:56:02;;;;;;;18.37;10.58;;;;;;;13.28;69.80;97659.36;1833598;77;25806;-86
2021/06/05 03:58:38;;;;;;;15.35;11.15;;;;;;;13.25;69.86;97661.16;1833549;77;25721;-84
2021/06/05 04:01:02;;;;;;;16.57;10.58;;;;;;;13.27;69.95;97659.05;1736876;80;25738;-82
2021/06/05 04:03:29;;;;;;;12.20;9.50;;;;;;;13.29;70.00;97660.47;1833377;77;27425;-85
2021/06/05 04:05:56;;;;;;;15.20;9.60;;;;;;;13.33;69.94;97662.22;1823691;77;25723;-84
2021/06/05 04:08:22;;;;;;;11.93;9.15;;;;;;;13.41;69.98;97663.80;1833646;77;25769;-85
2021/06/05 04:10:49;;;;;;;13.32;10.20;;;;;;;13.46;69.82;97662.63;1831580;77;25877;-86
2021/06/05 04:13:16;;;;;;;16.55;12.00;;;;;;;13.50;69.69;97657.06;1833448;77;25723;-87
2021/06/05 04:15:42;;;;;;;17.05;11.97;;;;;;;13.54;69.54;97658.25;1833494;77;27554;-84
2021/06/05 04:18:16;;;;;;;17.87;11.70;;;;;;;13.57;69.61;97653.22;1833351;77;25713;-84
2021/06/05 04:20:44;;;;;;;14.07;10.55;;;;;;;13.58;69.77;97657.59;1833112;77;25844;-86
2021/06/05 04:23:13;;;;;;;18.62;11.45;;;;;;;13.58;69.85;97666.26;1833567;77;25824;-85
2021/06/05 04:25:41;;;;;;;13.85;10.45;;;;;;;13.58;69.85;97664.91;1833614;77;25558;-85
2021/06/05 04:28:10;;;;;;;14.23;10.88;;;;;;;13.62;69.79;97657.98;1810655;77;27541;-86
2021/06/05 04:30:38;;;;;;;14.40;10.28;;;;;;;13.65;69.97;97652.92;1833584;77;25695;-86
2021/06/05 04:33:06;;;;;;;14.45;10.38;;;;;;;13.66;69.96;97661.89;1833361;77;25752;-86
2021/06/05 04:35:32;;;;;;;16.32;10.93;;;;;;;13.67;70.19;97667.62;1833521;77;25840;-86
2021/06/05 04:37:59;;;;;;;13.70;10.93;;;;;;;13.60;70.08;97670.94;1833479;77;25821;-85
2021/06/05 04:40:27;;;;;;;15.45;10.53;;;;;;;13.60;70.07;97668.22;1833309;77;27347;-85
2021/06/05 04:42:54;;;;;;;13.40;9.83;;;;;;;13.63;70.08;97668.61;1833317;77;25814;-84
2021/06/05 04:45:22;;;;;;;18.57;10.28;;;;;;;13.69;70.08;97676.36;1833445;77;25866;-86
2021/06/05 04:47:49;;;;;;;17.40;10.63;;;;;;;13.73;70.09;97677.59;1828169;77;26618;-85
2021/06/05 04:50:20;;;;;;;15.65;11.08;;;;;;;13.77;70.07;97679.30;1813983;77;25624;-86
2021/06/05 04:52:47;;;;;;;13.75;10.18;;;;;;;13.76;70.20;97688.52;1813885;77;28276;-86
2021/06/05 04:55:14;;;;;;;14.28;10.72;;;;;;;13.75;70.23;97678.20;1813765;77;25731;-85
2021/06/05 04:57:41;;;;;;;14.45;10.90;;;;;;;13.76;70.34;97678.50;1813810;77;25672;-85
2021/06/05 05:00:13;;;;;;;14.50;10.88;;;;;;;13.73;70.37;97687.08;1813606;77;25761;-86
2021/06/05 05:02:41;;;;;;;15.93;12.13;;;;;;;13.74;70.32;97681.96;1823485;77;25759;-85
2021/06/05 05:05:09;;;;;;;14.83;11.43;;;;;;;13.77;70.21;97696.94;1837662;77;27516;-85
2021/06/05 05:07:36;;;;;;;19.52;12.13;;;;;;;13.73;70.17;97697.94;1838653;77;25714;-86
2021/06/05 05:10:06;;;;;;;15.93;12.82;;;;;;;13.74;70.06;97702.83;1841796;77;25233;-85
2021/06/05 05:12:32;;;;;;;20.72;13.48;;;;;;;13.75;70.04;97703.97;1821959;77;26394;-84
2021/06/05 05:14:59;;;;;;;19.75;13.38;;;;;;;13.80;70.00;97708.70;1827384;77;25653;-84
2021/06/05 05:17:26;;;;;;;20.08;10.88;;;;;;;13.86;69.94;97717.31;1823633;77;27156;-83
2021/06/05 05:19:52;;;;;;;15.35;11.33;;;;;;;13.86;70.03;97718.15;1836705;77;25769;-83
2021/06/05 05:22:19;;;;;;;23.98;12.00;;;;;;;13.85;70.42;97709.70;1833237;77;25835;-82
2021/06/05 05:24:45;;;;;;;18.98;12.35;;;;;;;13.83;70.50;97700.95;1830689;77;25722;-81
2021/06/05 05:27:12;;;;;;;20.10;12.00;;;;;;;13.81;70.76;97696.27;1829374;77;26006;-82
2021/06/05 05:29:38;;;;;;;18.30;12.00;;;;;;;13.77;70.94;97696.94;1827287;77;28197;-82
2021/06/05 05:32:07;;;;;;;18.65;11.95;;;;;;;13.78;71.14;97700.78;1831206;77;25681;-81
2021/06/05 05:34:33;;;;;;;17.98;12.47;;;;;;;13.81;71.09;97712.55;1833218;77;25757;-82
2021/06/05 05:37:00;;;;;;;21.57;13.18;;;;;;;13.87;71.19;97717.62;1834245;77;25827;-82
2021/06/05 05:39:27;;;;;;;19.02;13.65;;;;;;;13.90;71.47;97708.48;1832427;77;25697;-83
2021/06/05 05:41:53;;;;;;;23.98;13.10;;;;;;;13.91;71.70;97716.10;1827104;77;27353;-83
2021/06/05 05:44:20;;;;;;;23.50;13.35;;;;;;;13.90;71.78;97716.63;1827231;77;25771;-83
2021/06/05 05:46:48;;;;;;;21.48;13.62;;;;;;;13.90;71.91;97701.70;1835715;77;25717;-83
2021/06/05 05:49:15;;;;;;;19.62;13.55;;;;;;;13.92;72.06;97694.70;1830541;77;26403;-83
2021/06/05 05:51:42;;;;;;;18.32;13.95;;;;;;;13.93;72.34;97695.83;1832560;77;25768;-83
2021/06/05 05:54:09;;;;;;;19.95;13.18;;;;;;;13.93;72.24;97700.42;1825504;77;27285;-84
2021/06/05 05:56:36;;;;;;;18.15;13.35;;;;;;;13.98;72.36;97712.28;1827453;77;25710;-82
2021/06/05 05:59:04;;;;;;;19.55;12.98;;;;;;;13.98;72.48;97712.28;1826304;77;25680;-82
2021/06/05 06:01:31;;;;;;;16.02;12.80;;;;;;;13.98;72.53;97708.73;1836163;76;25901;-82
2021/06/05 06:03:59;;;;;;;19.85;12.93;;;;;;;14.02;72.57;97717.54;1833029;77;25696;-82
2021/06/05 06:06:31;;;;;;;20.15;12.82;;;;;;;14.05;72.62;97710.31;1829372;77;28197;-82
2021/06/05 06:08:57;;;;;;;16.77;12.30;;;;;;;14.04;72.71;97711.36;1828743;77;26431;-82
2021/06/05 06:11:25;;;;;;;19.00;12.45;;;;;;;14.05;72.78;97718.45;1836993;77;25812;-82
2021/06/05 06:13:51;;;;;;;20.97;13.35;;;;;;;14.10;72.83;97715.07;1835469;77;25685;-82
2021/06/05 06:16:19;;;;;;;18.80;12.75;;;;;;;14.15;72.82;97715.20;1826837;77;25722;-83
2021/06/05 06:18:47;;;;;;;18.62;13.03;;;;;;;14.19;72.84;97728.64;1836304;77;27524;-83
2021/06/05 06:21:18;;;;;;;18.37;14.10;;;;;;;14.21;72.92;97735.20;1827103;77;25691;-83
2021/06/05 06:23:47;;;;;;;18.97;13.83;;;;;;;14.25;73.01;97739.94;1826719;77;25865;-83
2021/06/05 06:26:22;;;;;;;21.80;17.50;;;;;;;14.28;73.19;97734.06;1837644;77;26683;-84
2021/06/05 06:28:49;;;;;;;24.87;19.15;;;;;;;14.32;73.15;97739.34;1758314;81;25647;-83
2021/06/05 06:31:18;;;;;;;29.40;18.80;;;;;;;14.33;73.16;97733.39;1830564;77;27449;-83
2021/06/05 06:33:45;;;;;;;24.75;17.00;;;;;;;14.33;73.14;97730.67;1824155;77;26307;-83
2021/06/05 06:36:13;;;;;;;21.75;16.60;;;;;;;14.35;73.12;97727.20;1837767;77;25696;-82
2021/06/05 06:38:44;;;;;;;23.52;16.48;;;;;;;14.37;73.02;97722.35;1834867;77;26444;-82
2021/06/05 06:41:19;;;;;;;24.10;15.63;;;;;;;14.35;73.01;97713.11;1826589;77;25598;-82
2021/06/05 06:43:46;;;;;;;18.55;15.88;;;;;;;14.30;73.03;97710.75;1819606;77;27361;-82
2021/06/05 06:46:18;;;;;;;21.40;16.50;;;;;;;14.31;73.15;97721.92;1824699;77;25760;-83
2021/06/05 06:48:45;;;;;;;23.75;16.25;;;;;;;14.32;73.20;97727.66;1825303;77;25718;-83
2021/06/05 06:51:12;;;;;;;20.68;15.93;;;;;;;14.31;73.28;97724.63;1824797;77;25925;-82
2021/06/05 06:53:39;;;;;;;20.05;15.03;;;;;;;14.30;73.39;97727.05;1829861;77;25763;-83
2021/06/05 06:56:07;;;;;;;23.67;15.00;;;;;;;14.28;73.42;97729.16;1819138;77;27347;-83
2021/06/05 06:58:35;;;;;;;17.65;14.95;;;;;;;14.29;73.42;97733.00;1829365;78;26107;-83
2021/06/05 07:01:03;;;;;;;20.70;15.32;;;;;;;14.28;73.55;97729.98;1828654;77;25711;-83
2021/06/05 07:03:29;;;;;;;18.25;14.47;;;;;;;14.23;73.69;97722.23;1830919;77;25841;-83
2021/06/05 07:05:56;;;;;;;19.70;15.45;;;;;;;14.19;73.93;97712.88;1813436;78;25725;-82
2021/06/05 07:08:31;;;;;;;24.60;14.60;;;;;;;14.15;74.02;97709.77;1807057;78;27412;-83
2021/06/05 07:11:02;;;;;;;17.42;15.55;;;;;;;14.20;74.11;97709.94;1802850;78;25680;-83
2021/06/05 07:13:29;;;;;;;19.42;15.78;;;;;;;14.22;74.19;97705.11;1804335;78;25770;-83
2021/06/05 07:15:58;;;;;;;18.27;14.87;;;;;;;14.28;74.19;97703.36;1800892;78;25733;-83
2021/06/05 07:18:29;;;;;;;15.93;14.30;;;;;;;14.29;74.18;97696.34;1810175;78;25773;-83
2021/06/05 07:20:56;;;;;;;22.48;14.43;;;;;;;14.32;74.22;97691.83;1800408;78;27467;-83
2021/06/05 07:23:27;;;;;;;19.15;14.78;;;;;;;14.33;74.35;97682.63;1774200;78;25691;-83
2021/06/05 07:25:56;;;;;;;18.50;15.70;;;;;;;14.28;74.38;97670.78;1768159;77;31663;-83
2021/06/05 07:28:43;;;;;;;23.98;16.95;;;;;;;14.28;74.46;97672.13;1775994;80;26704;-83
2021/06/05 07:31:13;;;;;;;25.10;20.43;;;;;;;14.31;74.51;97674.41;1777462;77;25744;-83
2021/06/05 07:33:43;;;;;;;23.27;19.80;;;;;;;14.38;74.69;97672.42;1765991;77;26801;-84
2021/06/05 07:36:16;;;;;;;32.15;19.87;;;;;;;14.44;74.77;97679.70;1778578;78;25714;-84
2021/06/05 07:38:42;;;;;;;29.67;20.10;;;;;;;14.50;74.88;97676.58;1766210;77;25737;-83
2021/06/05 07:41:09;;;;;;;29.63;19.57;;;;;;;14.51;74.83;97666.84;1765930;77;26735;-83
2021/06/05 07:43:37;;;;;;;26.05;16.85;;;;;;;14.54;74.79;97662.31;1772963;77;25640;-83
2021/06/05 07:46:04;;;;;;;25.95;16.42;;;;;;;14.56;74.77;97660.73;1770965;77;27473;-83
2021/06/05 07:48:32;;;;;;;18.40;13.83;;;;;;;14.58;74.77;97663.52;1762927;79;26650;-83
2021/06/05 07:51:00;;;;;;;19.60;13.83;;;;;;;14.63;74.79;97665.53;1772148;80;26406;-83
2021/06/05 07:53:27;;;;;;;15.65;12.43;;;;;;;14.69;74.90;97665.45;1769653;79;25799;-82
2021/06/05 07:55:53;;;;;;;16.62;10.93;;;;;;;14.74;74.97;97658.77;1769593;79;25726;-84
2021/06/05 07:58:20;;;;;;;13.30;10.30;;;;;;;14.76;75.02;97654.47;1797962;78;27514;-83
2021/06/05 08:00:47;;;;;;;14.30;10.48;;;;;;;14.80;74.80;97650.23;1786176;77;25210;-83
2021/06/05 08:03:14;;;;;;;10.75;9.10;;;;;;;14.86;74.70;97644.39;1775394;77;25751;-82
2021/06/05 08:05:41;;;;;;;13.30;9.85;;;;;;;14.95;74.79;97646.56;1777622;77;26887;-83
2021/06/05 08:08:12;;;;;;;13.58;8.15;;;;;;;15.04;74.97;97651.13;1831681;77;25649;-83
2021/06/05 08:10:41;;;;;;;12.50;8.33;;;;;;;15.10;74.47;97646.09;1836392;77;27392;-83
2021/06/05 08:13:10;;;;;;;13.48;9.33;;;;;;;15.16;74.31;97647.89;1836915;77;25768;-82
2021/06/05 08:15:41;;;;;;;13.98;9.83;;;;;;;15.21;74.43;97639.88;1837064;77;26322;-83
2021/06/05 08:18:08;;;;;;;11.55;8.90;;;;;;;15.27;74.40;97640.27;1829292;77;25715;-82
2021/06/05 08:20:43;;;;;;;13.22;9.88;;;;;;;15.31;74.31;97635.20;1826561;77;25516;-83
2021/06/05 08:23:11;;;;;;;12.23;10.10;;;;;;;15.35;74.31;97638.55;1837840;77;27355;-82
2021/06/05 08:25:39;;;;;;;12.65;9.93;;;;;;;15.40;74.32;97633.25;1834713;77;25750;-82
2021/06/05 08:28:08;;;;;;;14.25;10.63;;;;;;;15.41;74.06;97633.55;1828956;77;26199;-82
2021/06/05 08:30:45;;;;;;;17.30;11.55;;;;;;;15.41;73.99;97644.42;1827057;77;26217;-82
2021/06/05 08:33:14;;;;;;;15.38;12.07;;;;;;;15.38;74.05;97647.61;1837983;77;25694;-82
2021/06/05 08:35:41;;;;;;;15.68;12.03;;;;;;;15.37;73.88;97651.39;1836215;77;28238;-82
2021/06/05 08:38:10;;;;;;;18.70;11.53;;;;;;;15.40;73.93;97650.09;1830109;77;25622;-82
2021/06/05 08:41:08;;;;;;;16.40;11.73;;;;;;;15.42;74.17;97654.24;1835623;77;25702;-82
2021/06/05 08:43:52;;;;;;;17.45;12.33;;;;;;;15.41;74.30;97652.59;1830807;77;25731;-82
2021/06/05 08:46:24;;;;;;;13.48;10.55;;;;;;;15.46;74.29;97650.50;1836983;77;25451;-82
2021/06/05 08:48:52;;;;;;;18.35;10.80;;;;;;;15.53;74.17;97649.03;1837563;77;28186;-82
2021/06/05 08:51:33;;;;;;;17.75;10.95;;;;;;;15.53;73.79;97647.14;1836568;77;25755;-82
2021/06/05 08:54:05;;;;;;;13.70;10.00;;;;;;;15.56;73.81;97644.52;1833616;77;26359;-83
2021/06/05 08:56:35;;;;;;;11.50;10.20;;;;;;;15.58;73.58;97636.95;1809389;77;26394;-83
2021/06/05 08:59:02;;;;;;;13.70;9.53;;;;;;;15.48;73.22;97635.60;1817811;77;25196;-83
2021/06/05 09:01:43;;;;;;;15.28;10.88;;;;;;;15.35;72.95;97630.92;1841532;77;28049;-82
2021/06/05 09:04:15;;;;;;;13.85;10.00;;;;;;;15.29;73.17;97627.27;1841173;77;25700;-84
2021/06/05 09:07:02;;;;;;;15.33;10.17;;;;;;;15.29;73.24;97623.72;1823386;77;26808;-83
2021/06/05 09:09:36;;;;;;;13.93;9.93;;;;;;;15.30;73.26;97622.66;1812561;77;25751;-83
2021/06/05 09:12:06;;;;;;;14.13;10.48;;;;;;;15.38;73.43;97620.41;1835612;77;25685;-82
2021/06/05 09:14:33;;;;;;;11.50;9.58;;;;;;;15.44;73.50;97609.13;1835931;77;28324;-82
2021/06/05 09:17:04;;;;;;;11.53;9.78;;;;;;;15.59;73.48;97615.45;1833812;77;25656;-85
2021/06/05 09:19:34;;;;;;;16.82;11.20;;;;;;;15.67;73.36;97619.19;1842954;77;25676;-82
2021/06/05 09:22:14;;;;;;;12.28;9.75;;;;;;;15.69;73.07;97617.06;1829585;77;25911;-82
2021/06/05 09:24:48;;;;;;;17.12;11.33;;;;;;;15.73;72.93;97612.78;1844463;77;25692;-81
2021/06/05 09:27:20;;;;;;;13.40;10.93;;;;;;;15.82;73.22;97608.61;1845890;77;27383;-81
2021/06/05 09:30:07;;;;;;;13.70;11.70;;;;;;;15.90;73.34;97604.71;1843779;77;25747;-81
2021/06/05 09:32:53;;;;;;;15.15;10.30;;;;;;;16.02;73.51;97604.98;1822768;77;25890;-83
2021/06/05 09:35:27;;;;;;;14.03;10.95;;;;;;;16.12;73.33;97592.09;1829539;77;25913;-81
2021/06/05 09:37:59;;;;;;;12.98;10.18;;;;;;;16.25;73.14;97591.81;1824529;77;25653;-81
2021/06/05 09:40:32;;;;;;;13.68;10.93;;;;;;;16.56;73.06;97594.56;1779577;77;28182;-81
2021/06/05 09:43:17;;;;;;;13.88;8.85;;;;;;;16.81;72.78;97586.88;1811072;77;25903;-81
2021/06/05 09:45:47;;;;;;;11.57;9.15;;;;;;;17.03;72.42;97579.31;1844354;77;25945;-81
2021/06/05 09:48:39;;;;;;;12.03;9.15;;;;;;;17.17;72.04;97577.37;1839626;77;25758;-81
2021/06/05 09:51:26;;;;;;;10.58;8.35;;;;;;;17.28;72.07;97570.98;1844051;77;25663;-81
2021/06/05 09:54:12;;;;;;;10.15;7.80;;;;;;;17.34;71.24;97569.72;1838458;77;28419;-81
2021/06/05 09:56:43;;;;;;;11.55;9.10;;;;;;;17.50;71.19;97571.59;1816410;77;25839;-81
2021/06/05 09:59:28;;;;;;;10.45;8.80;;;;;;;17.70;70.99;97571.07;1834767;77;25777;-81
2021/06/05 10:01:59;;;;;;;9.10;7.75;;;;;;;17.81;70.55;97570.13;1836322;77;25638;-81
2021/06/05 10:04:29;;;;;;;11.60;8.00;;;;;;;17.86;70.22;97566.11;1840867;77;26132;-81
2021/06/05 10:06:59;;;;;;;14.83;8.50;;;;;;;17.89;70.03;97568.30;1825216;77;27333;-82
2021/06/05 10:09:31;;;;;;;13.15;8.38;;;;;;;17.88;69.78;97565.28;1824544;77;25938;-82
2021/06/05 10:12:18;;;;;;;9.73;8.28;;;;;;;17.87;69.80;97562.30;1844393;77;25808;-81
2021/06/05 10:14:59;;;;;;;11.45;7.50;;;;;;;17.90;69.73;97569.96;1838073;77;26427;-82
2021/06/05 10:17:54;;;;;;;9.25;7.33;;;;;;;17.96;69.52;97566.23;1830730;77;26246;-82
2021/06/05 10:20:47;;;;;;;11.35;8.08;;;;;;;17.97;69.71;97563.78;1835709;77;27414;-81
2021/06/05 10:23:35;;;;;;;13.95;7.58;;;;;;;18.00;69.12;97556.42;1829317;77;26088;-82
2021/06/05 10:26:19;;;;;;;10.80;7.55;;;;;;;18.11;69.11;97552.76;1843227;77;26269;-83
2021/06/05 10:28:54;;;;;;;10.60;8.55;;;;;;;18.26;69.56;97553.45;1823391;77;25771;-82
2021/06/05 10:31:23;;;;;;;9.83;7.50;;;;;;;18.59;69.76;97551.11;1842858;77;25616;-82
2021/06/05 10:34:09;;;;;;;10.32;7.00;;;;;;;19.06;69.87;97547.95;1837299;77;28164;-82
2021/06/05 10:36:49;;;;;;;9.78;6.40;;;;;;;19.32;69.48;97545.41;1839809;77;25673;-83
2021/06/05 10:39:20;;;;;;;8.90;6.50;;;;;;;19.59;68.93;97539.28;1837428;77;25730;-82
2021/06/05 10:42:07;;;;;;;9.87;5.63;;;;;;;19.69;68.10;97531.11;1831632;77;26368;-83
2021/06/05 10:44:34;;;;;;;8.88;5.58;;;;;;;19.68;67.86;97518.50;1837621;77;26032;-82
2021/06/05 10:47:26;;;;;;;5.28;4.53;;;;;;;19.75;67.92;97510.89;1821073;77;27596;-82
2021/06/05 10:50:00;;;;;;;6.37;3.75;;;;;;;19.88;67.53;97506.01;1830595;77;25787;-83
2021/06/05 10:52:34;;;;;;;5.05;4.55;;;;;;;19.86;66.34;97506.27;1832501;77;25725;-83
2021/06/05 10:55:28;;;;;;;6.95;5.35;;;;;;;19.76;66.41;97513.91;1835883;77;25759;-83
2021/06/05 10:58:40;;;;;;;8.40;5.33;;;;;;;19.88;66.53;97507.38;1843237;77;25682;-83
2021/06/05 11:01:15;;;;;;;7.28;5.10;;;;;;;19.94;65.76;97506.29;1844715;77;32281;-83
2021/06/05 11:03:50;;;;;;;8.98;5.00;;;;;;;19.96;65.22;97505.48;1826689;77;25855;-83
2021/06/05 11:06:25;;;;;;;9.00;5.25;;;;;;;19.98;65.15;97500.56;1825962;77;25662;-83
2021/06/05 11:09:03;;;;;;;5.92;5.10;;;;;;;20.00;65.62;97506.05;1846610;77;26613;-83
2021/06/05 11:11:38;;;;;;;6.33;4.30;;;;;;;20.08;65.51;97506.89;1841092;77;25642;-84
2021/06/05 11:14:12;;;;;;;7.67;4.90;;;;;;;20.14;65.17;97503.63;1844395;77;28146;-84
2021/06/05 11:17:05;;;;;;;5.37;4.70;;;;;;;20.26;64.99;97498.73;1836663;77;25746;-83
2021/06/05 11:19:49;;;;;;;5.70;4.00;;;;;;;20.37;63.98;97494.11;1824870;77;26278;-84
2021/06/05 11:22:23;;;;;;;5.75;5.12;;;;;;;20.46;63.48;97485.08;1844355;77;25691;-84
2021/06/05 11:25:10;;;;;;;5.60;4.33;;;;;;;20.56;63.49;97480.69;1844166;77;25253;-84
2021/06/05 11:27:42;;;;;;;5.33;4.05;;;;;;;20.60;63.61;97481.80;1825048;77;27352;-83
2021/06/05 11:30:26;;;;;;;8.60;4.75;;;;;;;20.84;63.01;97474.12;1836620;77;33928;-85
2021/06/05 11:33:08;;;;;;;5.17;3.95;;;;;;;21.23;62.71;97471.35;1843816;77;25678;-85
2021/06/05 11:35:57;;;;;;;5.15;4.17;;;;;;;21.55;62.03;97464.39;1844646;77;26472;-86
2021/06/05 11:38:27;;;;;;;7.03;4.22;;;;;;;22.30;61.53;97446.44;1844089;77;25715;-86
2021/06/05 11:41:02;;;;;;;5.37;3.72;;;;;;;22.30;61.53;97446.44;1844615;77;28197;-84
2021/06/05 11:43:35;;;;;;;5.65;4.12;;;;;;;22.52;60.44;97454.25;1818695;77;25715;-89